Time;durP1;ratioP1;P1;durP2;ratioP2;P2;SDS_P1;SDS_P2;PMS_P1;PMS_P2;Temp;Humidity;BMP_temperature;BMP_pressure;BME280_temperature;BME280_humidity;BME280_pressure;Samples;Min_cycle;Max_cycle;Signal;HPM_P1;HPM_P2
2024/02/29 00:02:06;;;;;;;5.32;4.68;;;;;;;;;;5027744;28;58550;-79
2024/02/29 00:04:33;;;;;;;4.07;3.28;;;;;;;;;;5021815;28;59921;-79
2024/02/29 00:06:58;;;;;;;4.65;4.03;;;;;;;;;;5021635;28;58305;-79
2024/02/29 00:09:23;;;;;;;5.20;4.70;;;;;;;;;;5025650;28;59245;-79
2024/02/29 00:11:50;;;;;;;5.20;4.68;;;;;;;;;;5018610;28;58496;-81
2024/02/29 00:14:15;;;;;;;4.88;4.30;;;;;;;;;;5028167;28;58614;-82
2024/02/29 00:16:43;;;;;;;4.53;3.93;;;;;;;;;;5026817;28;58653;-82
2024/02/29 00:19:08;;;;;;;4.88;4.25;;;;;;;;;;5026992;28;58906;-83
2024/02/29 00:21:34;;;;;;;4.80;3.73;;;;;;;;;;5029342;28;58347;-82
2024/02/29 00:23:59;;;;;;;7.53;4.55;;;;;;;;;;5022755;28;58991;-82
2024/02/29 00:26:24;;;;;;;4.97;4.00;;;;;;;;;;5019858;28;58281;-83
2024/02/29 00:28:49;;;;;;;4.23;3.83;;;;;;;;;;5029384;28;59377;-83
2024/02/29 00:31:14;;;;;;;4.93;4.20;;;;;;;;;;5019295;28;59229;-83
2024/02/29 00:33:40;;;;;;;4.53;4.13;;;;;;;;;;5017404;28;58479;-83
2024/02/29 00:36:05;;;;;;;5.20;4.45;;;;;;;;;;5021291;28;58622;-83
2024/02/29 00:38:30;;;;;;;4.65;4.20;;;;;;;;;;5028895;28;59805;-83
2024/02/29 00:40:55;;;;;;;4.57;3.70;;;;;;;;;;5016049;28;60439;-83
2024/02/29 00:43:20;;;;;;;3.80;3.00;;;;;;;;;;5018726;28;58803;-83
2024/02/29 00:45:45;;;;;;;6.07;4.18;;;;;;;;;;5010261;28;58689;-83
2024/02/29 00:48:11;;;;;;;5.57;4.28;;;;;;;;;;5007584;28;58545;-83
2024/02/29 00:50:36;;;;;;;4.85;4.13;;;;;;;;;;5003689;28;60038;-83
2024/02/29 00:53:01;;;;;;;3.93;3.53;;;;;;;;;;5017674;28;58394;-81
2024/02/29 00:55:26;;;;;;;5.50;4.80;;;;;;;;;;5026836;28;58340;-83
2024/02/29 00:57:51;;;;;;;3.67;3.15;;;;;;;;;;5019325;28;60163;-82
2024/02/29 01:00:17;;;;;;;5.00;4.23;;;;;;;;;;5017701;28;58286;-83
2024/02/29 01:02:42;;;;;;;4.57;4.03;;;;;;;;;;5019400;28;58585;-84
2024/02/29 01:05:07;;;;;;;4.63;3.83;;;;;;;;;;5029288;28;58374;-83
2024/02/29 01:07:32;;;;;;;4.20;3.80;;;;;;;;;;5028025;28;59135;-81
2024/02/29 01:09:58;;;;;;;5.23;4.53;;;;;;;;;;5019171;28;58469;-83
2024/02/29 01:12:23;;;;;;;3.95;3.55;;;;;;;;;;5016198;28;58483;-83
2024/02/29 01:14:48;;;;;;;3.88;3.30;;;;;;;;;;5017948;28;59649;-83
2024/02/29 01:17:13;;;;;;;4.10;3.70;;;;;;;;;;5017525;28;58584;-83
2024/02/29 01:19:38;;;;;;;4.37;3.70;;;;;;;;;;5027551;28;58700;-83
2024/02/29 01:22:04;;;;;;;5.43;4.90;;;;;;;;;;5027976;28;59200;-79
2024/02/29 01:24:29;;;;;;;5.37;3.87;;;;;;;;;;5025510;28;58383;-79
2024/02/29 01:26:54;;;;;;;4.00;3.47;;;;;;;;;;5015485;28;59404;-79
2024/02/29 01:29:19;;;;;;;4.07;3.60;;;;;;;;;;5015540;28;58946;-78
2024/02/29 01:31:44;;;;;;;3.65;3.35;;;;;;;;;;5026234;28;58646;-79
2024/02/29 01:34:09;;;;;;;5.60;3.83;;;;;;;;;;5013205;28;59394;-79
2024/02/29 01:36:35;;;;;;;4.27;3.87;;;;;;;;;;5012538;28;59629;-79
2024/02/29 01:39:00;;;;;;;3.97;3.37;;;;;;;;;;5019658;28;58516;-79
2024/02/29 01:41:25;;;;;;;4.10;3.70;;;;;;;;;;5028470;28;57979;-79
2024/02/29 01:43:51;;;;;;;3.92;3.53;;;;;;;;;;5027421;27;58574;-79
2024/02/29 01:46:16;;;;;;;4.00;3.58;;;;;;;;;;5023698;28;59333;-79
2024/02/29 01:48:42;;;;;;;4.20;3.80;;;;;;;;;;5023522;28;58524;-79
2024/02/29 01:51:08;;;;;;;4.43;4.03;;;;;;;;;;5029279;28;58477;-79
2024/02/29 01:53:33;;;;;;;3.58;3.20;;;;;;;;;;5021710;28;59567;-79
2024/02/29 01:55:58;;;;;;;4.93;4.33;;;;;;;;;;5028811;28;59959;-79
2024/02/29 01:58:23;;;;;;;3.53;3.23;;;;;;;;;;5019809;28;58483;-79
2024/02/29 02:00:49;;;;;;;4.23;3.83;;;;;;;;;;5027970;28;59408;-79
2024/02/29 02:03:14;;;;;;;4.23;3.83;;;;;;;;;;5029062;28;59840;-79
2024/02/29 02:05:39;;;;;;;3.80;3.50;;;;;;;;;;5022509;28;58356;-79
2024/02/29 02:08:05;;;;;;;3.77;3.30;;;;;;;;;;5015983;28;58520;-79
2024/02/29 02:10:30;;;;;;;3.85;3.50;;;;;;;;;;5018607;28;58552;-79
2024/02/29 02:12:55;;;;;;;3.47;3.17;;;;;;;;;;5020092;28;58508;-79
2024/02/29 02:15:20;;;;;;;3.35;3.05;;;;;;;;;;5020419;28;59979;-78
2024/02/29 02:17:47;;;;;;;3.45;3.15;;;;;;;;;;5028935;28;58550;-79
2024/02/29 02:20:15;;;;;;;3.95;3.55;;;;;;;;;;5031637;28;60612;-83
2024/02/29 02:22:40;;;;;;;3.50;3.20;;;;;;;;;;5015920;28;58820;-81
2024/02/29 02:25:05;;;;;;;3.85;3.25;;;;;;;;;;5028886;28;58593;-83
2024/02/29 02:27:31;;;;;;;4.75;4.07;;;;;;;;;;5026608;28;59251;-82
2024/02/29 02:29:56;;;;;;;3.50;3.20;;;;;;;;;;5028529;28;58380;-79
2024/02/29 02:32:21;;;;;;;4.18;3.78;;;;;;;;;;5021748;28;60675;-82
2024/02/29 02:34:46;;;;;;;3.63;3.22;;;;;;;;;;5019312;28;58854;-83
2024/02/29 02:37:12;;;;;;;3.20;2.83;;;;;;;;;;5015808;28;58450;-82
2024/02/29 02:39:37;;;;;;;3.60;3.27;;;;;;;;;;5017440;28;59414;-82
2024/02/29 02:42:02;;;;;;;3.60;3.30;;;;;;;;;;5015852;28;59826;-81
2024/02/29 02:44:27;;;;;;;3.00;2.70;;;;;;;;;;5021848;28;58344;-83
2024/02/29 02:46:52;;;;;;;3.30;3.00;;;;;;;;;;5017166;28;59116;-82
2024/02/29 02:49:18;;;;;;;3.73;3.30;;;;;;;;;;5027296;28;58846;-83
2024/02/29 02:51:43;;;;;;;3.30;3.00;;;;;;;;;;5029601;28;60336;-83
2024/02/29 02:54:08;;;;;;;3.57;3.27;;;;;;;;;;5029461;28;58820;-82
2024/02/29 02:56:33;;;;;;;3.07;2.77;;;;;;;;;;5018826;28;58450;-82
2024/02/29 02:58:59;;;;;;;3.88;3.58;;;;;;;;;;5031820;28;60100;-83
2024/02/29 03:01:24;;;;;;;3.13;2.83;;;;;;;;;;5030021;28;59787;-83
2024/02/29 03:03:51;;;;;;;3.47;3.13;;;;;;;;;;5019877;28;58426;-83
2024/02/29 03:06:16;;;;;;;3.78;3.33;;;;;;;;;;5019247;28;58228;-83
2024/02/29 03:08:41;;;;;;;3.17;2.97;;;;;;;;;;5016160;28;59621;-83
2024/02/29 03:11:06;;;;;;;3.50;3.20;;;;;;;;;;5020567;28;59171;-83
2024/02/29 03:13:31;;;;;;;3.73;3.17;;;;;;;;;;5015382;28;58649;-83
2024/02/29 03:15:56;;;;;;;3.28;2.97;;;;;;;;;;5016250;28;58342;-83
2024/02/29 03:18:21;;;;;;;3.80;3.40;;;;;;;;;;5014405;28;60235;-82
2024/02/29 03:20:47;;;;;;;2.67;2.47;;;;;;;;;;5017769;28;58826;-82
2024/02/29 03:23:12;;;;;;;2.87;2.67;;;;;;;;;;5019899;28;58332;-81
2024/02/29 03:25:37;;;;;;;3.47;3.17;;;;;;;;;;5027272;28;59157;-82
2024/02/29 03:28:02;;;;;;;3.20;2.90;;;;;;;;;;5016980;28;58749;-81
2024/02/29 03:30:27;;;;;;;3.03;2.73;;;;;;;;;;5011208;28;58377;-82
2024/02/29 03:32:53;;;;;;;3.13;2.87;;;;;;;;;;5008550;28;59005;-84
2024/02/29 03:35:19;;;;;;;2.80;2.58;;;;;;;;;;5010163;28;58363;-83
2024/02/29 03:37:44;;;;;;;2.60;2.40;;;;;;;;;;5016847;28;59334;-83
2024/02/29 03:40:09;;;;;;;2.60;2.40;;;;;;;;;;5027118;28;58530;-80
2024/02/29 03:42:34;;;;;;;2.88;2.58;;;;;;;;;;5021525;28;58590;-80
2024/02/29 03:45:00;;;;;;;3.07;2.77;;;;;;;;;;5013121;28;60152;-78
2024/02/29 03:47:25;;;;;;;3.40;2.80;;;;;;;;;;5008999;28;58664;-79
2024/02/29 03:49:50;;;;;;;2.92;2.65;;;;;;;;;;5029988;28;58392;-79
2024/02/29 03:52:15;;;;;;;3.03;2.72;;;;;;;;;;5020923;28;59125;-80
2024/02/29 03:54:40;;;;;;;3.20;2.90;;;;;;;;;;5023911;28;58395;-78
2024/02/29 03:57:05;;;;;;;3.13;2.80;;;;;;;;;;5027185;28;59326;-79
2024/02/29 03:59:31;;;;;;;2.53;2.33;;;;;;;;;;5030053;28;58358;-80
2024/02/29 04:01:56;;;;;;;3.42;2.53;;;;;;;;;;5017405;28;58612;-79
2024/02/29 04:04:21;;;;;;;2.50;2.30;;;;;;;;;;5027207;28;59510;-79
2024/02/29 04:06:47;;;;;;;2.60;2.40;;;;;;;;;;5028018;28;58786;-80
2024/02/29 04:09:12;;;;;;;2.80;2.50;;;;;;;;;;5024816;28;58432;-79
2024/02/29 04:11:38;;;;;;;2.37;2.17;;;;;;;;;;5015259;28;59835;-79
2024/02/29 04:14:03;;;;;;;3.35;2.80;;;;;;;;;;5029377;28;60092;-81
2024/02/29 04:16:29;;;;;;;2.55;2.35;;;;;;;;;;5010440;28;59373;-79
2024/02/29 04:18:54;;;;;;;2.50;2.30;;;;;;;;;;5018341;28;59788;-79
2024/02/29 04:21:19;;;;;;;2.50;2.30;;;;;;;;;;5029316;28;58468;-79
2024/02/29 04:23:44;;;;;;;2.27;2.07;;;;;;;;;;5026536;28;59509;-79
2024/02/29 04:26:09;;;;;;;2.60;2.40;;;;;;;;;;5014427;28;58917;-79
2024/02/29 04:28:35;;;;;;;2.25;2.05;;;;;;;;;;5019253;28;58512;-79
2024/02/29 04:31:02;;;;;;;2.20;2.00;;;;;;;;;;5016069;28;59679;-80
2024/02/29 04:33:27;;;;;;;2.97;2.78;;;;;;;;;;5021198;28;58440;-79
2024/02/29 04:35:52;;;;;;;2.25;2.05;;;;;;;;;;5027856;28;58762;-79
2024/02/29 04:38:18;;;;;;;2.70;2.47;;;;;;;;;;5028276;28;59278;-79
2024/02/29 04:40:43;;;;;;;2.50;2.30;;;;;;;;;;5015209;28;58482;-79
2024/02/29 04:43:09;;;;;;;2.53;2.30;;;;;;;;;;5024508;28;60340;-80
2024/02/29 04:45:34;;;;;;;2.20;2.00;;;;;;;;;;5025782;28;59379;-79
2024/02/29 04:47:59;;;;;;;2.47;2.28;;;;;;;;;;5022033;28;58379;-80
2024/02/29 04:50:24;;;;;;;2.27;2.07;;;;;;;;;;5008733;28;59192;-79
2024/02/29 04:52:49;;;;;;;2.10;1.90;;;;;;;;;;5013223;28;58725;-79
2024/02/29 04:55:14;;;;;;;2.00;1.90;;;;;;;;;;5023520;28;58375;-80
2024/02/29 04:57:39;;;;;;;2.57;2.37;;;;;;;;;;5021505;28;59271;-79
2024/02/29 05:00:06;;;;;;;2.42;2.10;;;;;;;;;;5018742;28;58505;-79
2024/02/29 05:02:31;;;;;;;2.35;2.15;;;;;;;;;;5026764;28;59347;-80
2024/02/29 05:04:57;;;;;;;2.23;1.93;;;;;;;;;;5014813;28;59168;-79
2024/02/29 05:07:22;;;;;;;2.15;1.85;;;;;;;;;;5015793;28;58471;-79
2024/02/29 05:09:47;;;;;;;2.70;2.37;;;;;;;;;;5019262;28;58369;-80
2024/02/29 05:12:12;;;;;;;2.20;2.00;;;;;;;;;;5018361;28;59215;-79
2024/02/29 05:14:38;;;;;;;2.30;2.07;;;;;;;;;;5018933;28;58379;-80
2024/02/29 05:17:03;;;;;;;1.80;1.70;;;;;;;;;;5025025;28;59058;-79
2024/02/29 05:19:28;;;;;;;2.40;2.20;;;;;;;;;;5017118;28;58398;-79
2024/02/29 05:21:55;;;;;;;1.70;1.60;;;;;;;;;;5019418;28;59085;-79
2024/02/29 05:24:20;;;;;;;1.98;1.83;;;;;;;;;;5024729;28;59017;-79
2024/02/29 05:26:45;;;;;;;1.80;1.70;;;;;;;;;;5015247;28;58315;-80
2024/02/29 05:29:10;;;;;;;2.40;2.20;;;;;;;;;;5028436;28;59315;-79
2024/02/29 05:31:36;;;;;;;2.00;1.83;;;;;;;;;;5027967;27;58463;-79
2024/02/29 05:34:01;;;;;;;2.20;2.00;;;;;;;;;;5026736;28;58419;-79
2024/02/29 05:36:26;;;;;;;2.07;1.97;;;;;;;;;;5021739;28;59677;-79
2024/02/29 05:38:52;;;;;;;2.20;1.83;;;;;;;;;;5017329;28;58604;-79
2024/02/29 05:41:17;;;;;;;2.00;1.80;;;;;;;;;;5028130;28;60072;-80
2024/02/29 05:43:42;;;;;;;2.53;2.33;;;;;;;;;;5013729;28;58713;-79
2024/02/29 05:46:07;;;;;;;2.23;2.03;;;;;;;;;;5015724;28;58520;-79
2024/02/29 05:48:36;;;;;;;2.30;2.10;;;;;;;;;;5019895;28;58412;-79
2024/02/29 05:51:02;;;;;;;2.25;2.05;;;;;;;;;;5026585;27;59334;-83
2024/02/29 05:53:27;;;;;;;2.38;2.17;;;;;;;;;;5025640;28;58286;-84
2024/02/29 05:55:52;;;;;;;2.33;2.13;;;;;;;;;;5024412;28;58827;-81
2024/02/29 05:58:18;;;;;;;2.37;2.17;;;;;;;;;;5027475;27;59196;-77
2024/02/29 06:00:43;;;;;;;2.30;2.10;;;;;;;;;;5020657;28;58567;-75
2024/02/29 06:03:08;;;;;;;2.10;1.83;;;;;;;;;;5020462;28;60485;-75
2024/02/29 06:05:35;;;;;;;2.40;2.20;;;;;;;;;;5011898;28;58402;-75
2024/02/29 06:08:00;;;;;;;2.60;2.40;;;;;;;;;;5009654;28;60708;-75
2024/02/29 06:10:25;;;;;;;1.90;1.75;;;;;;;;;;5022537;28;58808;-75
2024/02/29 06:12:50;;;;;;;1.98;1.88;;;;;;;;;;5027383;28;58473;-75
2024/02/29 06:15:16;;;;;;;2.27;1.77;;;;;;;;;;5022587;28;59285;-75
2024/02/29 06:17:41;;;;;;;2.80;1.70;;;;;;;;;;5012878;28;58953;-75
2024/02/29 06:20:11;;;;;;;2.28;1.77;;;;;;;;;;5017113;28;58428;-75
2024/02/29 06:22:38;;;;;;;2.15;1.95;;;;;;;;;;5015715;28;58793;-75
2024/02/29 06:25:05;;;;;;;2.08;1.88;;;;;;;;;;5019918;28;58488;-75
2024/02/29 06:27:30;;;;;;;2.00;1.70;;;;;;;;;;5025577;28;59827;-74
2024/02/29 06:29:55;;;;;;;2.77;1.90;;;;;;;;;;5022910;28;59269;-75
2024/02/29 06:32:22;;;;;;;1.92;1.77;;;;;;;;;;5020282;28;58423;-75
2024/02/29 06:34:49;;;;;;;1.80;1.70;;;;;;;;;;5027987;28;60195;-75
2024/02/29 06:37:14;;;;;;;2.50;1.77;;;;;;;;;;5020762;28;58505;-74
2024/02/29 06:39:39;;;;;;;1.95;1.73;;;;;;;;;;5024500;28;58566;-75
2024/02/29 06:42:04;;;;;;;1.70;1.60;;;;;;;;;;5029823;28;59392;-75
2024/02/29 06:44:30;;;;;;;2.08;1.83;;;;;;;;;;5019131;28;58304;-75
2024/02/29 06:46:55;;;;;;;1.87;1.60;;;;;;;;;;5014251;28;60205;-75
2024/02/29 06:49:21;;;;;;;1.73;1.63;;;;;;;;;;5024581;28;59725;-75
2024/02/29 06:51:46;;;;;;;2.10;1.75;;;;;;;;;;5021828;28;58371;-75
2024/02/29 06:54:11;;;;;;;2.15;1.67;;;;;;;;;;5016403;28;59219;-75
2024/02/29 06:56:36;;;;;;;2.27;1.73;;;;;;;;;;5027850;28;59603;-75
2024/02/29 06:59:03;;;;;;;2.07;1.87;;;;;;;;;;5012985;28;58673;-75
2024/02/29 07:01:30;;;;;;;1.95;1.75;;;;;;;;;;5027501;28;59374;-77
2024/02/29 07:03:56;;;;;;;1.77;1.50;;;;;;;;;;5018960;28;58889;-76
2024/02/29 07:06:21;;;;;;;4.70;1.85;;;;;;;;;;5020737;28;60552;-77
2024/02/29 07:08:46;;;;;;;1.85;1.70;;;;;;;;;;5023360;28;58699;-76
2024/02/29 07:11:12;;;;;;;1.90;1.40;;;;;;;;;;5018113;28;58364;-75
2024/02/29 07:13:37;;;;;;;1.65;1.55;;;;;;;;;;5024337;28;58525;-75
2024/02/29 07:16:03;;;;;;;1.73;1.63;;;;;;;;;;5016084;28;59866;-75
2024/02/29 07:18:28;;;;;;;1.40;1.20;;;;;;;;;;5014434;28;58310;-75
2024/02/29 07:20:54;;;;;;;2.30;1.88;;;;;;;;;;5019849;28;60633;-75
2024/02/29 07:23:19;;;;;;;1.90;1.70;;;;;;;;;;5026414;28;58731;-75
2024/02/29 07:25:44;;;;;;;2.13;1.92;;;;;;;;;;5016418;28;58390;-75
2024/02/29 07:28:09;;;;;;;1.37;1.27;;;;;;;;;;5023341;28;58802;-75
2024/02/29 07:30:34;;;;;;;2.20;1.80;;;;;;;;;;5022493;28;58452;-75
2024/02/29 07:33:01;;;;;;;1.40;1.30;;;;;;;;;;5017093;28;60071;-74
2024/02/29 07:35:27;;;;;;;2.13;2.00;;;;;;;;;;5016563;28;58379;-75
2024/02/29 07:37:52;;;;;;;2.78;1.83;;;;;;;;;;5026612;28;58526;-75
2024/02/29 07:40:17;;;;;;;1.63;1.53;;;;;;;;;;5030868;27;60252;-75
2024/02/29 07:42:42;;;;;;;1.93;1.27;;;;;;;;;;5021672;28;58531;-75
2024/02/29 07:45:07;;;;;;;1.53;1.43;;;;;;;;;;5016070;28;58516;-75
2024/02/29 07:47:33;;;;;;;1.75;1.65;;;;;;;;;;5015528;28;59676;-75
2024/02/29 07:49:58;;;;;;;1.55;1.40;;;;;;;;;;5016331;28;58552;-75
2024/02/29 07:52:23;;;;;;;2.35;1.40;;;;;;;;;;5025717;28;60121;-75
2024/02/29 07:54:49;;;;;;;1.40;1.30;;;;;;;;;;5014083;28;58561;-75
2024/02/29 07:57:15;;;;;;;1.60;1.50;;;;;;;;;;5009747;28;58769;-75
2024/02/29 07:59:40;;;;;;;2.22;1.60;;;;;;;;;;5019190;28;60296;-75
2024/02/29 08:02:05;;;;;;;2.83;1.77;;;;;;;;;;5016512;28;59797;-75
2024/02/29 08:04:30;;;;;;;2.50;1.73;;;;;;;;;;5028574;28;58473;-75
2024/02/29 08:06:56;;;;;;;2.00;1.75;;;;;;;;;;5020894;28;59040;-75
2024/02/29 08:09:23;;;;;;;1.80;1.70;;;;;;;;;;5015656;28;58581;-75
2024/02/29 08:11:48;;;;;;;2.35;1.88;;;;;;;;;;5015177;28;59619;-76
2024/02/29 08:14:13;;;;;;;1.77;1.40;;;;;;;;;;5027949;28;58734;-76
2024/02/29 08:16:38;;;;;;;1.50;1.40;;;;;;;;;;5028931;28;58322;-76
2024/02/29 08:19:03;;;;;;;1.23;1.13;;;;;;;;;;5029565;28;60119;-77
2024/02/29 08:21:32;;;;;;;1.63;1.37;;;;;;;;;;5024097;28;59236;-75
2024/02/29 08:23:57;;;;;;;1.60;1.50;;;;;;;;;;5024207;28;58446;-75
2024/02/29 08:26:22;;;;;;;1.47;1.33;;;;;;;;;;5014338;28;59242;-75
2024/02/29 08:28:49;;;;;;;2.20;1.67;;;;;;;;;;5026355;28;58497;-75
2024/02/29 08:31:14;;;;;;;1.88;1.42;;;;;;;;;;5027069;28;58390;-75
2024/02/29 08:33:39;;;;;;;1.53;1.30;;;;;;;;;;5017510;28;58607;-75
2024/02/29 08:36:05;;;;;;;1.40;1.30;;;;;;;;;;5006033;28;58539;-75
2024/02/29 08:38:30;;;;;;;2.57;1.83;;;;;;;;;;5005337;28;58555;-75
2024/02/29 08:40:55;;;;;;;1.33;1.23;;;;;;;;;;5011913;28;59973;-75
2024/02/29 08:43:21;;;;;;;1.87;1.73;;;;;;;;;;5014011;28;58244;-75
2024/02/29 08:45:46;;;;;;;1.40;1.30;;;;;;;;;;5020493;28;59610;-75
2024/02/29 08:48:12;;;;;;;0.95;0.95;;;;;;;;;;5026277;28;58697;-75
2024/02/29 08:50:37;;;;;;;2.33;2.13;;;;;;;;;;5016142;28;58476;-75
2024/02/29 08:53:02;;;;;;;1.65;1.52;;;;;;;;;;5016848;28;58682;-76
2024/02/29 08:55:27;;;;;;;1.40;1.30;;;;;;;;;;5016291;28;58416;-75
2024/02/29 08:57:52;;;;;;;1.65;1.55;;;;;;;;;;5022342;28;59219;-75
2024/02/29 09:00:17;;;;;;;1.38;1.27;;;;;;;;;;5026267;28;58553;-75
2024/02/29 09:02:44;;;;;;;1.23;1.13;;;;;;;;;;5026522;28;58399;-75
2024/02/29 09:05:09;;;;;;;1.25;1.05;;;;;;;;;;5016635;28;59474;-75
2024/02/29 09:07:35;;;;;;;1.60;1.42;;;;;;;;;;5028242;28;58783;-75
2024/02/29 09:10:00;;;;;;;1.53;1.30;;;;;;;;;;5027584;28;58687;-75
2024/02/29 09:12:25;;;;;;;1.27;1.17;;;;;;;;;;5027228;28;59676;-75
2024/02/29 09:14:50;;;;;;;1.65;1.50;;;;;;;;;;5023581;28;58381;-75
2024/02/29 09:17:15;;;;;;;1.67;1.58;;;;;;;;;;5016211;28;60169;-75
2024/02/29 09:19:40;;;;;;;1.73;1.50;;;;;;;;;;5025045;28;58942;-75
2024/02/29 09:22:06;;;;;;;1.60;1.50;;;;;;;;;;5027667;28;57906;-75
2024/02/29 09:24:31;;;;;;;1.00;0.90;;;;;;;;;;5028005;28;59539;-75
2024/02/29 09:26:56;;;;;;;1.67;1.17;;;;;;;;;;5025754;28;58654;-75
2024/02/29 09:29:21;;;;;;;1.67;1.13;;;;;;;;;;5017110;28;58559;-75
2024/02/29 09:31:46;;;;;;;1.50;1.40;;;;;;;;;;5017442;28;61233;-75
2024/02/29 09:34:11;;;;;;;1.50;1.40;;;;;;;;;;5016329;28;58562;-75
2024/02/29 09:36:37;;;;;;;1.77;1.37;;;;;;;;;;5017131;28;60208;-75
2024/02/29 09:39:05;;;;;;;1.60;1.30;;;;;;;;;;5017476;28;58466;-75
2024/02/29 09:41:30;;;;;;;;;;;;;;;;;;5028008;28;58335;-75
2024/02/29 09:43:56;;;;;;;1.60;1.40;;;;;;;;;;5011891;28;61358;-75
2024/02/29 09:46:21;;;;;;;1.20;1.10;;;;;;;;;;5008604;28;58470;-75
2024/02/29 09:48:47;;;;;;;1.20;1.10;;;;;;;;;;5012079;28;58361;-75
2024/02/29 09:51:16;;;;;;;1.25;1.15;;;;;;;;;;5016187;28;61242;-75
2024/02/29 09:53:41;;;;;;;1.17;1.00;;;;;;;;;;5023726;28;59063;-75
2024/02/29 09:56:08;;;;;;;1.23;1.00;;;;;;;;;;5012578;28;58491;-75
2024/02/29 09:58:35;;;;;;;1.20;1.10;;;;;;;;;;5023499;28;58853;-75
2024/02/29 10:01:00;;;;;;;1.20;1.10;;;;;;;;;;5021777;28;58384;-75
2024/02/29 10:03:27;;;;;;;1.02;1.02;;;;;;;;;;5019527;28;58331;-75
2024/02/29 10:05:52;;;;;;;1.40;1.20;;;;;;;;;;5025653;28;59848;-75
2024/02/29 10:08:18;;;;;;;0.93;0.93;;;;;;;;;;5011816;28;58378;-75
2024/02/29 10:10:43;;;;;;;1.10;1.00;;;;;;;;;;5019291;28;59557;-75
2024/02/29 10:13:08;;;;;;;1.30;1.20;;;;;;;;;;5027484;28;58743;-75
2024/02/29 10:15:33;;;;;;;0.77;0.75;;;;;;;;;;5030226;28;58384;-75
2024/02/29 10:17:59;;;;;;;1.10;1.00;;;;;;;;;;5032423;28;59350;-75
2024/02/29 10:20:25;;;;;;;0.98;0.98;;;;;;;;;;5030733;28;58324;-75
2024/02/29 10:22:53;;;;;;;1.40;1.27;;;;;;;;;;5030510;28;59291;-75
2024/02/29 10:25:19;;;;;;;1.40;1.27;;;;;;;;;;5020345;28;58900;-75
2024/02/29 10:27:44;;;;;;;1.33;1.23;;;;;;;;;;5022580;28;58506;-75
2024/02/29 10:30:12;;;;;;;0.82;0.82;;;;;;;;;;5030833;28;59648;-76
2024/02/29 10:32:37;;;;;;;1.40;1.30;;;;;;;;;;5027952;28;60749;-76
2024/02/29 10:35:21;;;;;;;1.60;1.33;;;;;;;;;;5023051;28;58473;-77
2024/02/29 10:37:46;;;;;;;1.10;0.98;;;;;;;;;;5009813;28;59492;-76
2024/02/29 10:40:12;;;;;;;1.17;1.02;;;;;;;;;;5019867;28;59056;-77
2024/02/29 10:42:38;;;;;;;1.10;1.00;;;;;;;;;;5024159;28;58691;-76
2024/02/29 10:45:04;;;;;;;1.25;1.10;;;;;;;;;;5027644;28;60068;-77
2024/02/29 10:47:32;;;;;;;1.08;0.88;;;;;;;;;;5020618;28;58419;-77
2024/02/29 10:50:03;;;;;;;0.68;0.68;;;;;;;;;;5018696;28;59351;-76
2024/02/29 10:52:31;;;;;;;1.30;1.20;;;;;;;;;;5014636;28;58855;-76
2024/02/29 10:55:09;;;;;;;0.95;0.95;;;;;;;;;;5008402;28;58359;-76
2024/02/29 10:57:53;;;;;;;0.73;0.73;;;;;;;;;;5013620;28;58900;-76
2024/02/29 11:00:19;;;;;;;0.80;0.80;;;;;;;;;;5020374;28;58425;-76
2024/02/29 11:02:44;;;;;;;1.00;0.90;;;;;;;;;;5030271;28;59622;-76
2024/02/29 11:05:11;;;;;;;1.15;1.05;;;;;;;;;;5030165;28;58373;-77
2024/02/29 11:07:36;;;;;;;1.45;1.05;;;;;;;;;;5030389;27;58470;-77
2024/02/29 11:10:04;;;;;;;0.90;0.87;;;;;;;;;;5021866;28;58540;-77
2024/02/29 11:12:29;;;;;;;0.88;0.82;;;;;;;;;;5023735;28;59066;-77
2024/02/29 11:14:56;;;;;;;0.90;0.90;;;;;;;;;;5025755;28;58733;-76
2024/02/29 11:17:21;;;;;;;1.27;1.15;;;;;;;;;;5016915;28;58702;-76
2024/02/29 11:19:56;;;;;;;1.15;0.80;;;;;;;;;;5015602;28;58957;-76
2024/02/29 11:22:29;;;;;;;1.05;0.82;;;;;;;;;;5027403;28;58572;-77
2024/02/29 11:24:55;;;;;;;1.08;1.02;;;;;;;;;;5024142;28;59092;-77
2024/02/29 11:27:28;;;;;;;0.83;0.80;;;;;;;;;;5014592;28;58514;-76
2024/02/29 11:29:58;;;;;;;1.08;0.95;;;;;;;;;;5020850;28;58670;-77
2024/02/29 11:32:29;;;;;;;0.80;0.80;;;;;;;;;;5029106;28;59638;-76
2024/02/29 11:34:54;;;;;;;1.02;0.82;;;;;;;;;;5007713;28;58315;-77
2024/02/29 11:37:20;;;;;;;0.80;0.80;;;;;;;;;;5007086;28;59847;-76
2024/02/29 11:39:45;;;;;;;0.90;0.90;;;;;;;;;;5006120;28;59450;-77
2024/02/29 11:42:10;;;;;;;1.37;1.27;;;;;;;;;;5006349;28;58450;-75
2024/02/29 11:44:35;;;;;;;1.02;0.95;;;;;;;;;;5006709;28;60413;-75
2024/02/29 11:47:00;;;;;;;0.75;0.63;;;;;;;;;;5006895;28;58420;-75
2024/02/29 11:49:26;;;;;;;0.80;0.80;;;;;;;;;;5006801;28;60457;-75
2024/02/29 11:51:52;;;;;;;0.60;0.60;;;;;;;;;;5016361;28;59650;-76
2024/02/29 11:54:17;;;;;;;0.82;0.82;;;;;;;;;;5026320;28;58382;-77
2024/02/29 11:56:42;;;;;;;0.65;0.65;;;;;;;;;;5016950;28;59528;-76
2024/02/29 11:59:10;;;;;;;0.67;0.67;;;;;;;;;;5018076;28;58450;-77
2024/02/29 12:01:36;;;;;;;1.20;1.13;;;;;;;;;;5027621;28;58529;-76
2024/02/29 12:04:01;;;;;;;1.38;0.98;;;;;;;;;;5028580;28;60087;-77
2024/02/29 12:06:26;;;;;;;0.80;0.70;;;;;;;;;;5022685;28;58626;-77
2024/02/29 12:08:52;;;;;;;0.60;0.60;;;;;;;;;;5017818;28;58587;-76
2024/02/29 12:11:18;;;;;;;0.50;0.50;;;;;;;;;;5030352;28;60074;-76
2024/02/29 12:13:43;;;;;;;0.70;0.70;;;;;;;;;;5028440;27;58417;-76
2024/02/29 12:16:09;;;;;;;0.60;0.60;;;;;;;;;;5029475;27;60098;-76
2024/02/29 12:18:34;;;;;;;1.47;0.97;;;;;;;;;;5026312;27;58494;-76
2024/02/29 12:21:00;;;;;;;0.73;0.63;;;;;;;;;;5031495;28;58466;-77
2024/02/29 12:23:28;;;;;;;1.70;0.57;;;;;;;;;;5028584;28;60642;-77
2024/02/29 12:25:53;;;;;;;0.50;0.50;;;;;;;;;;5026411;28;59019;-76
2024/02/29 12:28:18;;;;;;;0.70;0.70;;;;;;;;;;5028580;28;58409;-76
2024/02/29 12:30:45;;;;;;;0.97;0.97;;;;;;;;;;5026512;27;58871;-77
2024/02/29 12:33:13;;;;;;;0.50;0.50;;;;;;;;;;5025660;28;58461;-77
2024/02/29 12:35:38;;;;;;;0.77;0.75;;;;;;;;;;5016742;28;60616;-76
2024/02/29 12:38:03;;;;;;;0.67;0.67;;;;;;;;;;5015127;28;59682;-77
2024/02/29 12:40:31;;;;;;;0.60;0.57;;;;;;;;;;5023435;28;58392;-76
2024/02/29 12:42:57;;;;;;;0.50;0.50;;;;;;;;;;5025556;28;59916;-76
2024/02/29 12:45:23;;;;;;;0.80;0.80;;;;;;;;;;5027487;28;58491;-76
2024/02/29 12:47:48;;;;;;;0.80;0.80;;;;;;;;;;5026095;28;58399;-77
2024/02/29 12:50:14;;;;;;;0.98;0.90;;;;;;;;;;5029033;28;60341;-76
2024/02/29 12:52:39;;;;;;;0.60;0.60;;;;;;;;;;5017852;28;58484;-77
2024/02/29 12:55:05;;;;;;;0.50;0.50;;;;;;;;;;5022320;28;59050;-76
2024/02/29 12:57:30;;;;;;;0.50;0.50;;;;;;;;;;5023809;28;58924;-77
2024/02/29 12:59:55;;;;;;;0.60;0.60;;;;;;;;;;5018287;28;58161;-77
2024/02/29 13:02:21;;;;;;;0.57;0.57;;;;;;;;;;5025755;28;58497;-75
2024/02/29 13:04:46;;;;;;;0.75;0.75;;;;;;;;;;5016968;28;58884;-75
2024/02/29 13:07:11;;;;;;;0.73;0.65;;;;;;;;;;5023453;28;58356;-75
2024/02/29 13:09:37;;;;;;;0.85;0.85;;;;;;;;;;5028995;28;58484;-75
2024/02/29 13:12:02;;;;;;;0.70;0.70;;;;;;;;;;5026763;28;58589;-75
2024/02/29 13:14:27;;;;;;;0.50;0.50;;;;;;;;;;5028497;28;59488;-74
2024/02/29 13:16:52;;;;;;;0.40;0.40;;;;;;;;;;5026961;28;58798;-75
2024/02/29 13:19:17;;;;;;;0.63;0.63;;;;;;;;;;5028614;28;58647;-75
2024/02/29 13:21:43;;;;;;;0.93;0.87;;;;;;;;;;5017700;28;60181;-75
2024/02/29 13:24:08;;;;;;;0.50;0.50;;;;;;;;;;5004449;28;58389;-74
2024/02/29 13:26:33;;;;;;;0.60;0.60;;;;;;;;;;5007548;28;59611;-75
2024/02/29 13:28:59;;;;;;;0.50;0.50;;;;;;;;;;5006861;28;59601;-75
2024/02/29 13:31:24;;;;;;;0.60;0.60;;;;;;;;;;5009179;28;58835;-75
2024/02/29 13:33:49;;;;;;;0.60;0.60;;;;;;;;;;5021067;28;59216;-75
2024/02/29 13:36:15;;;;;;;0.80;0.80;;;;;;;;;;5021585;28;58873;-75
2024/02/29 13:38:40;;;;;;;0.70;0.60;;;;;;;;;;5014396;28;58447;-75
2024/02/29 13:41:06;;;;;;;0.83;0.70;;;;;;;;;;5016829;28;59659;-75
2024/02/29 13:43:31;;;;;;;0.68;0.43;;;;;;;;;;5018362;28;58939;-75
2024/02/29 13:45:56;;;;;;;0.60;0.60;;;;;;;;;;5016175;28;58667;-75
2024/02/29 13:48:22;;;;;;;0.77;0.60;;;;;;;;;;5019797;28;59268;-75
2024/02/29 13:50:47;;;;;;;1.25;1.15;;;;;;;;;;5020789;28;58987;-75
2024/02/29 13:53:13;;;;;;;0.30;0.30;;;;;;;;;;5021790;28;58194;-75
2024/02/29 13:55:38;;;;;;;0.80;0.80;;;;;;;;;;5027651;28;59004;-75
2024/02/29 13:58:03;;;;;;;0.60;0.60;;;;;;;;;;5016768;28;58973;-75
2024/02/29 14:00:29;;;;;;;0.50;0.50;;;;;;;;;;5015416;28;59912;-75
2024/02/29 14:02:54;;;;;;;0.47;0.47;;;;;;;;;;5019763;28;58397;-75
2024/02/29 14:05:19;;;;;;;0.67;0.67;;;;;;;;;;5032359;28;58413;-74
2024/02/29 14:07:44;;;;;;;1.10;1.00;;;;;;;;;;5018258;28;59277;-75
2024/02/29 14:10:10;;;;;;;0.57;0.57;;;;;;;;;;5022587;28;60099;-77
2024/02/29 14:12:35;;;;;;;0.45;0.45;;;;;;;;;;5024875;28;58362;-77
2024/02/29 14:15:01;;;;;;;0.60;0.60;;;;;;;;;;5016394;28;58530;-76
2024/02/29 14:17:26;;;;;;;0.50;0.50;;;;;;;;;;5019317;28;58839;-77
2024/02/29 14:19:51;;;;;;;0.73;0.70;;;;;;;;;;5030632;28;59400;-77
2024/02/29 14:22:16;;;;;;;0.43;0.43;;;;;;;;;;5029443;28;58703;-77
2024/02/29 14:24:41;;;;;;;0.70;0.70;;;;;;;;;;5024253;28;58191;-77
2024/02/29 14:27:07;;;;;;;0.70;0.40;;;;;;;;;;5022085;28;59330;-76
2024/02/29 14:29:32;;;;;;;0.53;0.53;;;;;;;;;;5028621;28;58872;-77
2024/02/29 14:31:57;;;;;;;0.50;0.50;;;;;;;;;;5020414;28;58522;-76
2024/02/29 14:34:22;;;;;;;0.50;0.40;;;;;;;;;;5005024;28;59870;-77